Time;durP1;ratioP1;P1;durP2;ratioP2;P2;SDS_P1;SDS_P2;PMS_P1;PMS_P2;Temp;Humidity;BMP_temperature;BMP_pressure;BME280_temperature;BME280_humidity;BME280_pressure;Samples;Min_cycle;Max_cycle;Signal;HPM_P1;HPM_P2
2022/03/27 00:02:13;;;;;;;;;50.75;38.50;;;;;13.32;43.06;102415.97;4978127;28;45343;-60
2022/03/27 00:04:38;;;;;;;;;52.25;38.50;;;;;13.33;43.20;102422.06;4977638;28;45478;-60
2022/03/27 00:07:04;;;;;;;;;50.00;37.25;;;;;13.29;43.24;102417.75;4977657;28;45393;-60
2022/03/27 00:09:29;;;;;;;;;58.50;40.25;;;;;13.27;43.37;102416.91;4976130;28;45269;-61
2022/03/27 00:11:54;;;;;;;;;54.50;40.00;;;;;13.23;43.38;102420.44;4977842;28;45227;-61
2022/03/27 00:14:20;;;;;;;;;49.00;38.00;;;;;13.21;43.67;102422.19;4977961;28;45260;-60
2022/03/27 00:16:45;;;;;;;;;50.50;36.50;;;;;13.16;43.67;102416.97;4977617;28;45284;-59
2022/03/27 00:19:11;;;;;;;;;46.50;35.50;;;;;13.14;43.80;102420.50;4983659;28;45231;-59
2022/03/27 00:21:36;;;;;;;;;45.25;36.25;;;;;13.09;43.70;102415.34;5030258;27;45554;-59
2022/03/27 00:24:02;;;;;;;;;53.25;36.50;;;;;13.05;43.98;102417.13;4978485;28;45204;-62
2022/03/27 00:26:27;;;;;;;;;52.25;37.25;;;;;13.03;44.18;102412.81;4977017;28;47193;-62
2022/03/27 00:28:53;;;;;;;;;56.25;39.75;;;;;13.01;45.23;102420.66;4988707;28;45288;-62
2022/03/27 00:31:19;;;;;;;;;55.25;37.75;;;;;12.99;44.41;102416.31;4976435;28;45291;-62
2022/03/27 00:33:46;;;;;;;;;49.50;37.25;;;;;12.96;44.27;102416.34;4977379;28;45561;-63
2022/03/27 00:36:13;;;;;;;;;58.25;37.25;;;;;12.95;44.22;102420.69;4977031;28;46152;-62
2022/03/27 00:38:45;;;;;;;;;56.50;39.25;;;;;12.93;44.63;102422.47;4977501;28;45512;-61
2022/03/27 00:41:14;;;;;;;;;54.25;37.75;;;;;12.92;44.57;102417.25;4977489;28;45351;-62
2022/03/27 00:43:40;;;;;;;;;50.75;38.75;;;;;12.89;45.09;102420.78;4977335;28;45451;-61
2022/03/27 00:46:06;;;;;;;;;58.75;44.00;;;;;12.88;44.58;102424.25;4977144;28;46054;-61
2022/03/27 00:48:33;;;;;;;;;52.25;40.50;;;;;12.85;44.71;102413.84;4977306;28;45277;-61
2022/03/27 00:50:58;;;;;;;;;62.50;43.50;;;;;12.79;43.67;102401.72;4976479;28;45236;-61
2022/03/27 00:53:24;;;;;;;;;51.25;40.00;;;;;12.84;44.41;102408.66;4976206;28;45499;-61
2022/03/27 00:55:49;;;;;;;;;55.75;42.75;;;;;12.82;44.50;102413.91;4976028;28;45502;-62
2022/03/27 00:58:16;;;;;;;;;57.25;43.75;;;;;12.82;44.42;102411.28;4977040;28;45368;-61
2022/03/27 01:01:01;;;;;;;;;54.00;39.50;;;;;12.79;44.73;102398.25;4976466;28;45327;-63
2022/03/27 01:03:28;;;;;;;;;52.75;40.25;;;;;12.79;44.98;102406.06;4966960;28;45285;-64
2022/03/27 01:05:57;;;;;;;;;51.75;34.00;;;;;12.78;44.44;102397.38;4976414;28;47285;-63
2022/03/27 01:11:11;;;;;;;;;58.50;39.25;;;;;12.74;44.92;102400.91;4976284;28;45283;-63
2022/03/27 01:13:41;;;;;;;;;52.50;37.75;;;;;12.71;44.80;102394.84;4976838;28;45465;-63
2022/03/27 01:16:14;;;;;;;;;53.00;36.75;;;;;12.70;44.64;102403.56;4964311;28;45339;-63
2022/03/27 01:18:41;;;;;;;;;61.00;42.50;;;;;12.67;44.79;102395.78;4976802;28;46099;-63
2022/03/27 01:21:08;;;;;;;;;57.50;40.50;;;;;12.66;45.22;102404.47;4976605;28;45354;-64
2022/03/27 01:23:34;;;;;;;;;54.50;40.00;;;;;12.63;45.78;102401.91;4976595;28;45228;-62
2022/03/27 01:25:59;;;;;;;;;51.50;39.75;;;;;12.61;45.72;102398.41;4976478;28;46187;-62
2022/03/27 01:28:25;;;;;;;;;53.00;38.50;;;;;12.57;45.40;102397.59;4976479;28;45505;-62
2022/03/27 01:30:50;;;;;;;;;54.50;42.00;;;;;12.56;46.07;102395.00;4976809;28;45317;-62
2022/03/27 01:33:15;;;;;;;;;52.25;37.00;;;;;12.54;45.71;102399.38;4976498;28;45437;-62
2022/03/27 01:35:41;;;;;;;;;49.50;38.25;;;;;12.52;45.68;102398.53;4976380;28;45512;-62
2022/03/27 01:38:06;;;;;;;;;56.00;40.00;;;;;12.51;46.33;102388.97;4978077;28;45326;-62
2022/03/27 01:40:32;;;;;;;;;49.50;37.00;;;;;12.49;46.13;102383.78;4979726;28;45276;-62
2022/03/27 01:42:57;;;;;;;;;53.75;40.00;;;;;12.45;45.70;102382.06;4979407;28;45318;-62
2022/03/27 01:45:23;;;;;;;;;54.00;41.25;;;;;12.43;46.20;102378.63;4979520;28;46071;-61
2022/03/27 01:47:49;;;;;;;;;56.25;41.25;;;;;12.39;46.04;102371.69;4979422;28;45468;-61
2022/03/27 01:50:14;;;;;;;;;52.00;40.50;;;;;12.37;46.70;102371.69;4979253;28;45602;-62
2022/03/27 01:52:39;;;;;;;;;58.50;41.25;;;;;12.38;46.60;102375.16;4979444;28;45425;-61
2022/03/27 01:55:12;;;;;;;;;50.50;38.50;;;;;12.34;46.60;102366.50;4984059;28;45337;-69
2022/03/27 01:57:39;;;;;;;;;55.00;41.25;;;;;12.29;48.20;102367.44;4983918;28;45377;-63
2022/03/27 02:00:06;;;;;;;;;55.50;40.00;;;;;12.25;46.85;102364.00;4979536;28;45362;-64
2022/03/27 02:02:31;;;;;;;;;46.00;39.00;;;;;12.26;47.15;102365.72;4979228;28;45235;-62
2022/03/27 02:04:56;;;;;;;;;51.50;35.75;;;;;12.24;47.88;102364.88;4979019;28;45996;-62
2022/03/27 02:07:22;;;;;;;;;50.75;37.75;;;;;12.23;47.41;102364.88;4979206;28;45217;-62
2022/03/27 02:09:50;;;;;;;;;44.00;35.00;;;;;12.18;49.06;102352.72;4979439;28;45149;-63
2022/03/27 02:12:16;;;;;;;;;55.75;38.50;;;;;12.17;47.35;102358.81;4979002;28;45500;-62
2022/03/27 02:14:41;;;;;;;;;54.75;39.00;;;;;12.14;47.33;102353.66;4979221;28;46868;-62
2022/03/27 02:17:10;;;;;;;;;53.25;40.00;;;;;12.10;47.56;102348.47;4980973;28;45255;-62
2022/03/27 02:19:36;;;;;;;;;51.50;37.75;;;;;12.07;47.56;102343.28;4988731;28;45278;-64
2022/03/27 02:22:02;;;;;;;;;31.25;24.00;;;;;12.05;47.61;102356.34;5027278;28;45608;-63
2022/03/27 02:24:27;;;;;;;;;53.75;39.25;;;;;12.01;48.10;102354.59;4977639;28;47043;-64
2022/03/27 02:26:53;;;;;;;;;44.50;35.25;;;;;12.00;49.61;102354.63;4978901;28;45314;-63
2022/03/27 02:29:18;;;;;;;;;51.75;38.00;;;;;11.96;48.74;102353.78;4988778;28;45371;-60
2022/03/27 02:31:44;;;;;;;;;54.00;40.25;;;;;11.93;49.09;102361.63;4978849;28;45406;-60
2022/03/27 02:34:10;;;;;;;;;49.50;36.50;;;;;11.91;48.94;102362.53;4978842;28;46146;-61
2022/03/27 02:36:36;;;;;;;;;56.25;39.75;;;;;11.87;48.15;102349.53;4978730;28;45333;-61
2022/03/27 02:39:02;;;;;;;;;50.25;36.75;;;;;11.88;48.37;102353.84;4979111;28;45570;-60
2022/03/27 02:41:27;;;;;;;;;50.00;40.50;;;;;11.87;48.67;102356.47;4977215;28;45406;-60
2022/03/27 02:43:53;;;;;;;;;53.00;35.75;;;;;11.85;48.21;102355.63;4978805;28;46119;-61
2022/03/27 02:46:18;;;;;;;;;51.50;34.00;;;;;11.85;49.42;102360.84;4978716;28;45480;-61
2022/03/27 02:48:44;;;;;;;;;43.50;32.25;;;;;11.81;49.45;102356.50;4978958;28;45422;-60
2022/03/27 02:51:09;;;;;;;;;48.50;35.00;;;;;11.80;49.89;102358.22;4977996;28;45330;-61
2022/03/27 02:53:35;;;;;;;;;49.00;35.00;;;;;11.78;50.15;102359.97;4978762;28;46245;-64
2022/03/27 02:56:00;;;;;;;;;56.75;38.00;;;;;11.79;48.92;102359.09;4978185;28;45203;-64
2022/03/27 02:58:26;;;;;;;;;40.50;34.00;;;;;11.78;49.20;102359.97;4978977;28;45715;-64
2022/03/27 03:00:52;;;;;;;;;47.50;35.75;;;;;11.78;49.43;102357.38;4978490;28;45377;-64
2022/03/27 03:03:17;;;;;;;;;48.00;32.75;;;;;11.75;48.90;102352.16;4978684;28;46273;-64
2022/03/27 03:05:43;;;;;;;;;46.00;35.75;;;;;11.75;49.08;102356.50;4978292;28;45307;-64
2022/03/27 03:08:11;;;;;;;;;38.75;28.25;;;;;11.72;49.23;102352.19;4978921;28;45229;-64
2022/03/27 03:10:38;;;;;;;;;45.00;32.50;;;;;11.73;49.64;102359.13;4978216;28;45275;-64
2022/03/27 03:13:04;;;;;;;;;52.00;35.75;;;;;11.71;48.92;102360.00;4978509;28;45423;-63
2022/03/27 03:15:30;;;;;;;;;47.25;32.25;;;;;11.69;49.15;102359.16;4978256;28;45354;-63
2022/03/27 03:17:56;;;;;;;;;42.50;32.75;;;;;11.66;49.94;102360.03;4987320;28;45212;-62
2022/03/27 03:20:21;;;;;;;;;49.50;35.00;;;;;11.64;49.66;102355.72;4985218;28;45326;-61
2022/03/27 03:22:47;;;;;;;;;51.25;39.00;;;;;11.62;48.75;102360.94;5023447;28;46400;-61
2022/03/27 03:25:13;;;;;;;;;44.50;33.50;;;;;11.61;50.05;102359.19;4978021;28;45275;-61
2022/03/27 03:27:38;;;;;;;;;18.25;6.50;;;;;11.57;49.79;102358.34;4978673;28;45384;-62
2022/03/27 03:30:06;;;;;;;;;44.75;37.00;;;;;11.55;49.83;102365.31;4978372;28;45493;-62
2022/03/27 03:32:33;;;;;;;;;36.00;32.75;;;;;11.50;50.05;102350.59;4978174;28;46558;-64
2022/03/27 03:34:59;;;;;;;;;47.75;33.50;;;;;11.54;49.81;102358.38;4977931;28;45377;-64
2022/03/27 03:37:24;;;;;;;;;25.50;20.75;;;;;11.53;49.87;102360.97;4978701;28;45429;-64
2022/03/27 03:39:49;;;;;;;;;45.00;36.75;;;;;11.50;50.13;102361.88;4977881;28;45430;-64
2022/03/27 03:42:15;;;;;;;;;42.50;35.25;;;;;11.48;50.40;102357.53;4978543;28;46442;-64
2022/03/27 03:44:41;;;;;;;;;36.50;30.00;;;;;11.50;50.83;102369.69;4978051;28;45230;-61
2022/03/27 03:47:07;;;;;;;;;44.50;35.25;;;;;11.49;50.33;102367.09;4978395;28;45240;-60
2022/03/27 03:49:32;;;;;;;;;40.75;32.25;;;;;11.48;52.04;102370.56;4977860;28;45212;-65
2022/03/27 03:51:58;;;;;;;;;39.50;33.75;;;;;11.44;50.63;102366.25;4976481;28;47219;-65
2022/03/27 03:54:23;;;;;;;;;37.75;32.50;;;;;11.45;50.81;102367.97;4977766;28;45231;-65
2022/03/27 03:56:48;;;;;;;;;46.25;34.00;;;;;11.45;50.89;102367.97;4978308;28;45393;-65
2022/03/27 03:59:14;;;;;;;;;49.00;27.75;;;;;11.41;50.19;102363.63;4978011;28;45416;-65
2022/03/27 04:01:39;;;;;;;;;43.00;34.50;;;;;11.37;52.14;102365.41;4977285;28;45956;-65
2022/03/27 04:04:05;;;;;;;;;41.25;32.75;;;;;11.36;51.05;102370.59;4977706;28;45275;-64
2022/03/27 04:06:31;;;;;;;;;54.25;35.25;;;;;11.32;50.75;102361.97;4978168;28;45361;-64
2022/03/27 04:08:56;;;;;;;;;45.25;36.75;;;;;11.31;50.93;102364.56;4977880;28;45515;-64
2022/03/27 04:11:22;;;;;;;;;44.00;36.25;;;;;11.30;51.56;102363.69;4977621;28;45368;-64
2022/03/27 04:13:47;;;;;;;;;42.00;32.25;;;;;11.28;51.18;102368.91;4977762;28;45312;-64
2022/03/27 04:16:13;;;;;;;;;43.25;32.25;;;;;11.28;51.06;102362.84;4978049;28;45294;-63
2022/03/27 04:18:38;;;;;;;;;35.25;31.75;;;;;11.26;51.70;102370.66;4982167;28;45383;-64
2022/03/27 04:21:04;;;;;;;;;44.25;35.25;;;;;11.24;51.60;102367.19;4983154;28;46115;-64
2022/03/27 04:23:30;;;;;;;;;41.00;34.50;;;;;11.23;51.57;102375.88;4977844;28;45292;-63
2022/03/27 04:25:56;;;;;;;;;46.00;32.50;;;;;11.22;51.15;102371.56;4977757;28;45445;-63
2022/03/27 04:28:21;;;;;;;;;32.25;23.50;;;;;11.19;51.11;102368.06;4977741;28;45568;-63
2022/03/27 04:30:47;;;;;;;;;38.25;30.25;;;;;11.16;51.23;102371.56;4977468;28;45294;-62
2022/03/27 04:33:12;;;;;;;;;27.25;26.50;;;;;11.10;51.12;102369.00;4976308;28;45209;-63
2022/03/27 04:35:38;;;;;;;;;44.00;31.75;;;;;11.14;51.90;102369.84;4964864;28;45334;-63
2022/03/27 04:38:03;;;;;;;;;53.00;36.00;;;;;11.12;51.63;102377.66;4977400;28;45243;-63
2022/03/27 04:40:29;;;;;;;;;42.50;33.75;;;;;11.11;52.52;102377.66;4977526;28;45203;-62
2022/03/27 04:42:55;;;;;;;;;42.50;32.25;;;;;11.08;50.87;102378.53;4975257;28;45358;-61
2022/03/27 04:45:20;;;;;;;;;34.00;27.25;;;;;11.06;51.48;102374.22;4975356;28;45890;-61
2022/03/27 04:47:45;;;;;;;;;46.50;35.00;;;;;11.06;51.60;102388.09;4974891;28;45395;-63
2022/03/27 04:50:11;;;;;;;;;52.25;37.00;;;;;11.05;51.47;102377.69;4974705;28;45354;-63
2022/03/27 04:52:37;;;;;;;;;34.25;29.50;;;;;11.03;51.78;102390.69;4974723;28;45384;-60
2022/03/27 04:55:05;;;;;;;;;42.50;33.50;;;;;11.04;52.06;102388.97;4974815;28;45618;-61
2022/03/27 04:57:35;;;;;;;;;47.00;34.75;;;;;11.02;51.64;102382.91;4974771;28;45399;-60
2022/03/27 05:00:02;;;;;;;;;44.25;35.75;;;;;11.00;51.94;102385.47;4975807;28;46168;-59
2022/03/27 05:02:28;;;;;;;;;38.00;29.25;;;;;10.98;52.31;102388.09;4974623;28;45365;-59
2022/03/27 05:04:53;;;;;;;;;48.25;36.50;;;;;10.96;52.13;102386.38;4974202;28;45478;-61
2022/03/27 05:07:19;;;;;;;;;32.75;26.25;;;;;10.93;52.23;102387.25;4974044;28;45484;-62
2022/03/27 05:09:44;;;;;;;;;41.75;31.75;;;;;10.92;52.16;102393.31;4973951;28;45437;-62
2022/03/27 05:12:10;;;;;;;;;25.00;18.75;;;;;10.92;52.59;102393.31;4974317;28;45394;-63
2022/03/27 05:14:35;;;;;;;;;43.25;33.75;;;;;10.91;53.06;102393.31;4977223;28;45421;-61
2022/03/27 05:17:02;;;;;;;;;38.00;29.50;;;;;10.90;52.84;102392.47;4977390;28;45374;-62
2022/03/27 05:19:29;;;;;;;;;42.00;32.75;;;;;10.89;52.77;102395.06;4979075;28;45314;-62
2022/03/27 05:21:54;;;;;;;;;45.75;36.00;;;;;10.88;52.95;102399.41;4977944;28;45803;-62
2022/03/27 05:24:19;;;;;;;;;41.00;31.00;;;;;10.88;52.96;102406.34;4979289;28;45341;-62
2022/03/27 05:26:45;;;;;;;;;45.50;33.75;;;;;10.86;53.06;102406.34;4979112;28;45445;-62
2022/03/27 05:29:10;;;;;;;;;45.75;37.00;;;;;10.86;53.62;102408.94;4979067;28;45386;-62
2022/03/27 05:31:36;;;;;;;;;47.00;35.50;;;;;10.84;53.54;102407.22;4977490;27;45452;-61
2022/03/27 05:34:03;;;;;;;;;49.00;36.00;;;;;10.84;53.55;102399.41;4977802;28;45312;-61
2022/03/27 05:36:29;;;;;;;;;40.50;30.00;;;;;10.82;53.66;102412.44;4978946;28;45552;-62
2022/03/27 05:38:55;;;;;;;;;47.75;33.50;;;;;10.81;53.40;102405.50;4979084;28;46074;-61
2022/03/27 05:41:20;;;;;;;;;48.00;36.25;;;;;10.80;53.88;102411.53;4978743;28;45222;-61
2022/03/27 05:43:46;;;;;;;;;46.25;35.75;;;;;10.79;53.39;102417.59;4979151;28;45256;-62
2022/03/27 05:46:12;;;;;;;;;40.75;30.25;;;;;10.79;53.75;102414.13;4978870;28;45456;-61
2022/03/27 05:48:37;;;;;;;;;41.25;31.25;;;;;10.78;53.49;102422.81;4978901;28;46124;-61
2022/03/27 05:51:03;;;;;;;;;43.75;34.25;;;;;10.74;54.07;102402.88;4978033;28;45615;-63
2022/03/27 05:53:29;;;;;;;;;42.75;35.00;;;;;10.72;54.29;102402.88;4979820;28;45437;-60
2022/03/27 05:55:54;;;;;;;;;40.00;36.25;;;;;10.77;54.06;102416.75;4979103;28;45474;-65
2022/03/27 05:58:19;;;;;;;;;48.25;36.00;;;;;10.75;54.12;102409.81;4979374;28;46184;-59
2022/03/27 06:00:45;;;;;;;;;48.75;35.00;;;;;10.77;53.94;102415.88;4979377;28;45296;-59
2022/03/27 06:03:10;;;;;;;;;38.50;33.00;;;;;10.76;53.11;102421.94;4979612;28;45438;-59
2022/03/27 06:05:35;;;;;;;;;44.25;35.75;;;;;10.74;54.12;102421.97;4978960;28;46264;-59
2022/03/27 06:08:01;;;;;;;;;36.50;31.50;;;;;10.75;53.68;102421.09;4979377;28;45315;-59
2022/03/27 06:10:32;;;;;;;;;49.00;35.50;;;;;10.75;53.46;102415.88;4978901;28;45548;-59
2022/03/27 06:12:59;;;;;;;;;46.00;33.50;;;;;10.76;54.23;102421.94;4979438;28;45283;-59
2022/03/27 06:15:26;;;;;;;;;41.00;33.75;;;;;10.76;54.13;102420.22;4979060;28;45471;-59
2022/03/27 06:17:53;;;;;;;;;43.00;35.75;;;;;10.77;53.67;102427.16;4985904;28;45551;-59
2022/03/27 06:20:30;;;;;;;;;39.00;31.50;;;;;10.80;54.27;102429.75;4983977;28;45377;-59
2022/03/27 06:22:56;;;;;;;;;52.00;36.00;;;;;10.80;54.79;102423.66;5018986;28;45276;-61
2022/03/27 06:25:26;;;;;;;;;41.25;30.25;;;;;10.84;54.34;102431.50;4978721;28;45399;-61
2022/03/27 06:27:52;;;;;;;;;44.00;30.50;;;;;10.87;54.50;102431.47;4979126;28;46245;-61
2022/03/27 06:30:20;;;;;;;;;38.50;34.00;;;;;10.91;54.39;102437.53;4978799;28;45635;-61
2022/03/27 06:32:47;;;;;;;;;46.50;37.50;;;;;10.93;54.91;102435.81;4979348;28;45453;-60
2022/03/27 06:35:15;;;;;;;;;43.75;31.25;;;;;10.95;54.52;102441.88;4978686;28;45710;-60
2022/03/27 06:37:41;;;;;;;;;42.75;35.75;;;;;10.97;54.52;102435.78;4978984;28;45519;-60
2022/03/27 06:40:07;;;;;;;;;45.50;34.50;;;;;11.03;54.38;102437.53;4978645;28;45361;-60
2022/03/27 06:42:33;;;;;;;;;50.25;37.50;;;;;11.07;54.14;102443.59;4979238;28;45290;-61
2022/03/27 06:44:59;;;;;;;;;48.50;38.00;;;;;11.10;54.07;102436.63;4978688;28;45406;-61
2022/03/27 06:47:26;;;;;;;;;42.75;31.75;;;;;11.16;53.94;102439.22;4978861;27;45336;-61
2022/03/27 06:49:53;;;;;;;;;49.50;36.00;;;;;11.19;53.87;102434.00;4978291;28;45216;-62
2022/03/27 06:52:20;;;;;;;;;40.25;30.25;;;;;11.26;53.63;102443.53;4979023;28;45373;-62
2022/03/27 06:54:46;;;;;;;;;39.75;35.75;;;;;11.32;54.05;102436.56;4978266;28;45452;-61
2022/03/27 06:57:14;;;;;;;;;41.75;35.25;;;;;11.37;54.05;102433.06;4978801;28;45322;-61
2022/03/27 07:05:09;;;;;;;;;51.75;36.25;;;;;11.51;53.58;102436.50;4978356;28;45347;-61
2022/03/27 07:07:35;;;;;;;;;47.00;33.25;;;;;11.57;53.22;102440.81;4978270;28;46299;-60
2022/03/27 07:10:00;;;;;;;;;42.25;35.75;;;;;11.64;53.33;102432.09;4978533;28;45232;-60
2022/03/27 07:12:26;;;;;;;;;46.75;34.00;;;;;11.67;52.97;102436.44;4978353;28;45219;-60
2022/03/27 07:14:51;;;;;;;;;41.25;33.00;;;;;11.70;54.50;102431.19;4978580;28;45211;-60
2022/03/27 07:17:18;;;;;;;;;29.75;28.00;;;;;11.76;53.16;102438.97;4981313;28;45203;-60
2022/03/27 07:19:44;;;;;;;;;36.50;29.50;;;;;11.80;53.34;102436.38;4987497;28;45193;-65
2022/03/27 07:22:09;;;;;;;;;51.00;39.00;;;;;11.88;53.32;102437.22;5028058;28;45232;-63
2022/03/27 07:24:35;;;;;;;;;37.25;30.75;;;;;11.94;52.68;102438.91;4978548;28;45239;-66
2022/03/27 07:27:00;;;;;;;;;39.25;33.75;;;;;11.98;52.84;102434.53;4978164;28;46661;-65
2022/03/27 07:29:26;;;;;;;;;54.25;38.75;;;;;12.02;52.55;102434.53;4978635;28;45342;-64
2022/03/27 07:31:52;;;;;;;;;41.00;34.25;;;;;12.09;52.88;102435.34;4978270;28;45317;-63
2022/03/27 07:34:17;;;;;;;;;38.25;33.25;;;;;12.22;52.87;102433.53;4978009;28;45331;-64
2022/03/27 07:36:42;;;;;;;;;54.50;34.75;;;;;12.30;52.25;102437.81;4977193;28;46080;-62
2022/03/27 07:39:11;;;;;;;;;40.50;35.25;;;;;12.38;52.16;102441.22;4982101;28;45341;-63
2022/03/27 07:41:39;;;;;;;;;49.75;38.00;;;;;12.47;52.16;102438.53;4978223;28;45251;-69
2022/03/27 07:44:05;;;;;;;;;43.75;34.25;;;;;12.51;52.03;102448.94;4978225;28;45383;-60
2022/03/27 07:46:30;;;;;;;;;38.50;32.25;;;;;12.56;52.14;102448.03;4977903;28;46378;-61
2022/03/27 07:48:56;;;;;;;;;35.50;30.00;;;;;12.61;51.76;102455.81;4977973;28;45432;-64
2022/03/27 07:51:21;;;;;;;;;43.00;32.50;;;;;12.65;51.94;102444.50;4977218;28;46613;-65
2022/03/27 07:53:46;;;;;;;;;46.25;33.50;;;;;12.67;51.62;102451.41;4977377;28;46343;-65
2022/03/27 07:56:11;;;;;;;;;44.25;34.75;;;;;12.78;51.40;102446.09;4976763;28;45440;-67
2022/03/27 07:58:37;;;;;;;;;42.25;32.50;;;;;12.86;51.48;102452.13;4977299;28;46438;-66
2022/03/27 08:01:03;;;;;;;;;40.75;31.75;;;;;12.96;51.10;102448.53;4977454;28;45466;-63
2022/03/27 08:03:29;;;;;;;;;51.00;35.25;;;;;13.07;51.14;102448.44;4977230;28;45637;-65
2022/03/27 08:05:54;;;;;;;;;37.75;29.00;;;;;13.12;50.68;102444.00;4977168;28;45316;-59
2022/03/27 08:08:19;;;;;;;;;35.00;34.25;;;;;13.14;50.43;102451.81;4977897;28;45251;-59
2022/03/27 08:10:45;;;;;;;;;27.25;23.50;;;;;13.17;50.83;102450.03;4977575;28;45432;-62
2022/03/27 08:13:10;;;;;;;;;40.75;29.25;;;;;13.23;50.67;102447.41;4976321;28;45517;-61
2022/03/27 08:15:36;;;;;;;;;39.00;30.50;;;;;13.30;50.30;102442.97;4977421;28;46136;-61
2022/03/27 08:18:01;;;;;;;;;47.75;37.00;;;;;13.32;50.24;102446.44;4977679;28;45283;-60
2022/03/27 08:20:27;;;;;;;;;48.75;33.75;;;;;13.36;50.32;102446.38;4982630;28;45259;-59
2022/03/27 08:22:54;;;;;;;;;42.00;27.25;;;;;13.50;50.15;102447.97;5021267;28;45255;-61
2022/03/27 08:28:06;;;;;;;;;44.75;32.25;;;;;13.78;49.70;102449.31;4977446;28;45237;-59
2022/03/27 08:30:32;;;;;;;;;36.25;31.75;;;;;13.90;49.54;102450.91;4976034;28;45418;-60
2022/03/27 08:32:57;;;;;;;;;41.75;32.50;;;;;14.01;49.29;102454.22;4976384;28;45397;-59
2022/03/27 08:35:22;;;;;;;;;34.25;27.50;;;;;14.11;49.00;102450.63;4975310;28;45402;-60
2022/03/27 08:37:48;;;;;;;;;42.50;33.75;;;;;14.23;48.92;102455.66;4976192;28;45616;-58
2022/03/27 08:40:17;;;;;;;;;39.75;30.25;;;;;14.34;48.43;102452.88;4975705;28;45548;-60
2022/03/27 08:42:43;;;;;;;;;39.25;28.50;;;;;14.44;48.33;102456.25;4976118;28;45365;-60
2022/03/27 08:45:09;;;;;;;;;38.50;32.00;;;;;14.54;48.04;102449.97;4974630;28;45357;-61
2022/03/27 08:47:39;;;;;;;;;37.25;30.00;;;;;14.60;47.90;102449.84;4975667;28;45286;-61
2022/03/27 08:50:52;;;;;;;;;41.50;33.25;;;;;14.69;47.34;102452.34;4976070;28;45353;-64
2022/03/27 08:53:28;;;;;;;;;38.75;34.00;;;;;14.79;47.11;102460.88;4972711;28;45386;-67
2022/03/27 08:55:59;;;;;;;;;37.25;29.50;;;;;14.83;46.17;102452.97;4976400;28;45386;-67
2022/03/27 08:58:32;;;;;;;;;34.00;29.75;;;;;14.89;46.54;102455.47;4977140;28;45876;-67
2022/03/27 09:00:57;;;;;;;;;39.50;33.00;;;;;15.02;46.68;102457.88;4975583;28;45337;-67
2022/03/27 09:03:23;;;;;;;;;36.00;30.00;;;;;15.12;46.22;102456.78;4977378;28;45245;-64
2022/03/27 09:05:49;;;;;;;;;32.75;31.00;;;;;15.18;45.98;102454.91;4975310;28;46237;-67
2022/03/27 09:08:15;;;;;;;;;39.75;32.75;;;;;15.27;45.88;102459.13;4977197;28;45297;-65
2022/03/27 09:10:41;;;;;;;;;37.25;29.75;;;;;15.32;45.84;102459.88;4976652;28;45516;-65
2022/03/27 09:13:11;;;;;;;;;33.50;30.00;;;;;15.43;45.87;102455.31;4977063;28;45504;-64
2022/03/27 09:15:37;;;;;;;;;35.75;28.25;;;;;15.56;45.26;102455.03;4976732;28;46248;-66
2022/03/27 09:18:07;;;;;;;;;31.50;25.50;;;;;15.66;45.09;102461.88;4985016;28;45237;-59
2022/03/27 09:20:53;;;;;;;;;41.00;28.25;;;;;15.76;44.68;102471.25;4987600;28;45286;-60
2022/03/27 09:23:27;;;;;;;;;37.00;29.75;;;;;15.75;44.65;102452.03;5005432;28;45419;-60
2022/03/27 09:25:57;;;;;;;;;35.75;26.50;;;;;15.81;44.51;102453.66;4976668;28;45418;-61
2022/03/27 09:28:22;;;;;;;;;37.25;31.75;;;;;15.91;44.53;102470.06;4976314;28;45967;-61
2022/03/27 09:30:47;;;;;;;;;33.67;28.00;;;;;16.01;43.83;102464.56;4976646;28;45158;-60
2022/03/27 09:33:30;;;;;;;;;38.75;28.00;;;;;16.18;43.64;102460.69;4976724;28;45214;-65
2022/03/27 09:36:23;;;;;;;;;33.00;25.00;;;;;16.31;43.22;102464.75;4976296;28;46440;-61
2022/03/27 09:39:13;;;;;;;;;34.50;25.00;;;;;16.47;42.99;102460.00;4976569;28;45878;-65
2022/03/27 09:41:52;;;;;;;;;41.75;33.50;;;;;16.52;42.85;102452.88;4976616;28;45239;-67
2022/03/27 09:44:33;;;;;;;;;31.50;28.00;;;;;16.59;41.69;102468.41;4975318;28;45851;-74
2022/03/27 09:47:06;;;;;;;;;37.50;31.00;;;;;16.62;42.33;102455.25;4965935;28;45291;-67
2022/03/27 09:49:34;;;;;;;;;36.00;29.00;;;;;16.66;42.54;102454.28;4976067;28;46080;-61
2022/03/27 09:52:08;;;;;;;;;42.75;32.00;;;;;16.71;41.84;102446.28;4975787;28;45342;-64
2022/03/27 09:54:50;;;;;;;;;34.00;29.00;;;;;16.80;41.89;102450.44;4975774;28;45437;-64
2022/03/27 09:57:26;;;;;;;;;39.00;30.75;;;;;16.92;42.13;102456.22;4976889;28;48460;-64
2022/03/27 09:59:53;;;;;;;;;41.00;31.75;;;;;17.02;42.12;102449.84;4978250;28;45271;-64
2022/03/27 10:02:30;;;;;;;;;42.25;32.00;;;;;17.10;42.15;102441.75;4978825;28;45445;-63
2022/03/27 10:05:13;;;;;;;;;38.25;28.00;;;;;17.13;41.69;102449.53;4979031;28;45478;-63
2022/03/27 10:07:38;;;;;;;;;35.50;29.25;;;;;17.16;41.56;102446.81;4978467;28;45575;-66
2022/03/27 10:10:06;;;;;;;;;37.50;31.50;;;;;17.25;41.57;102451.84;4978209;28;45631;-64
2022/03/27 10:12:34;;;;;;;;;44.00;33.75;;;;;17.38;40.12;102444.44;4977929;28;45564;-63
2022/03/27 10:15:07;;;;;;;;;39.50;28.75;;;;;17.46;40.26;102439.00;4978659;28;45473;-63
2022/03/27 10:17:34;;;;;;;;;39.25;28.75;;;;;17.54;39.90;102435.22;4978739;28;45338;-63
2022/03/27 10:20:14;;;;;;;;;38.00;24.75;;;;;17.63;40.10;102434.09;4978558;28;45285;-63
2022/03/27 10:22:45;;;;;;;;;35.75;28.25;;;;;17.71;40.04;102447.91;4978952;28;45367;-63
2022/03/27 10:25:14;;;;;;;;;31.00;27.50;;;;;17.75;39.92;102431.13;4975263;28;45392;-63
2022/03/27 10:27:40;;;;;;;;;36.00;32.00;;;;;17.85;39.87;102429.09;4977115;28;45486;-63
2022/03/27 10:30:09;;;;;;;;;35.50;30.50;;;;;17.96;39.57;102431.38;4977566;28;45355;-62
2022/03/27 10:32:35;;;;;;;;;41.75;35.00;;;;;17.97;39.87;102426.06;4976731;28;45423;-62
2022/03/27 10:35:25;;;;;;;;;33.75;30.50;;;;;17.96;38.31;102419.06;4977953;28;45457;-62
2022/03/27 10:38:05;;;;;;;;;27.50;26.00;;;;;18.04;39.11;102424.13;4978359;28;45431;-62
2022/03/27 10:41:12;;;;;;;;;29.75;27.25;;;;;18.10;38.94;102413.38;4967634;28;45303;-62
2022/03/27 10:44:12;;;;;;;;;33.00;27.25;;;;;18.18;38.59;102413.97;4989181;28;45219;-64
2022/03/27 10:46:38;;;;;;;;;40.50;29.50;;;;;18.25;38.57;102399.72;4978615;28;45284;-63
2022/03/27 10:49:29;;;;;;;;;29.50;23.25;;;;;18.38;38.80;102402.78;4978379;28;45337;-64
2022/03/27 10:52:04;;;;;;;;;28.75;26.25;;;;;18.37;37.74;102395.81;4967083;27;45748;-62
2022/03/27 10:54:29;;;;;;;;;42.50;27.50;;;;;18.36;38.35;102392.31;4978200;28;45806;-63
2022/03/27 10:56:55;;;;;;;;;33.75;27.00;;;;;18.43;37.46;102400.91;4978693;28;45216;-63
2022/03/27 10:59:27;;;;;;;;;40.25;29.25;;;;;18.48;37.09;102394.56;4978406;28;45227;-63
2022/03/27 11:01:54;;;;;;;;;33.25;26.25;;;;;18.58;37.06;102391.59;4978768;28;45241;-63
2022/03/27 11:04:37;;;;;;;;;34.75;30.00;;;;;18.69;36.95;102386.84;4978188;28;45212;-63
2022/03/27 11:07:28;;;;;;;;;33.25;29.00;;;;;18.75;38.24;102387.50;4978237;28;45168;-64
2022/03/27 11:09:53;;;;;;;;;33.75;28.75;;;;;18.77;36.95;102384.78;4976281;27;45331;-63
2022/03/27 11:12:24;;;;;;;;;39.75;32.50;;;;;18.77;37.47;102379.53;4978268;28;45377;-63
2022/03/27 11:14:53;;;;;;;;;40.75;32.00;;;;;18.83;37.54;102379.34;4978783;28;45474;-63
2022/03/27 11:17:41;;;;;;;;;45.25;34.50;;;;;18.94;36.19;102363.97;4981682;28;45446;-63
2022/03/27 11:20:33;;;;;;;;;36.00;29.25;;;;;19.01;37.14;102367.25;4982735;28;46225;-63
2022/03/27 11:23:00;;;;;;;;;43.50;32.00;;;;;19.09;36.28;102366.06;4969397;28;45859;-64
2022/03/27 11:25:27;;;;;;;;;43.25;30.75;;;;;19.19;36.72;102369.19;4978105;28;45477;-64